createdAt,value
2022-08-02T00:02:37.494Z,2.22
2022-08-02T00:07:31.580Z,2.22
2022-08-02T00:12:26.390Z,2.80
2022-08-02T00:17:20.311Z,2.10
2022-08-02T00:22:14.640Z,2.25
2022-08-02T00:27:10.863Z,2.15
2022-08-02T00:32:05.271Z,2.38
2022-08-02T00:36:58.944Z,2.65
2022-08-02T00:41:53.800Z,2.92
2022-08-02T00:46:48.596Z,3.33
2022-08-02T00:51:42.997Z,2.90
2022-08-02T00:56:37.303Z,2.50
2022-08-02T01:01:56.762Z,2.92
2022-08-02T01:06:51.916Z,3.33
2022-08-02T01:11:45.302Z,3.80
2022-08-02T01:16:49.752Z,4.70
2022-08-02T01:22:06.541Z,5.55
2022-08-02T01:27:30.899Z,5.13
2022-08-02T01:32:32.955Z,5.38
2022-08-02T01:37:44.022Z,4.88
2022-08-02T01:42:39.817Z,4.90
2022-08-02T01:47:36.531Z,5.82
2022-08-02T01:52:33.678Z,5.17
2022-08-02T01:57:28.732Z,4.35
2022-08-02T02:02:22.138Z,4.22
2022-08-02T02:07:16.249Z,4.55
2022-08-02T02:12:13.419Z,4.60
2022-08-02T02:17:52.791Z,4.97
2022-08-02T02:22:23.571Z,5.10
2022-08-02T02:27:20.981Z,5.15
2022-08-02T02:32:15.785Z,5.93
2022-08-02T02:37:14.993Z,6.47
2022-08-02T02:42:10.722Z,7.75
2022-08-02T02:47:03.771Z,9.60
2022-08-02T02:51:58.772Z,7.53
2022-08-02T02:56:53.821Z,6.90
2022-08-02T03:01:57.089Z,5.65
2022-08-02T03:06:52.376Z,6.88
2022-08-02T03:11:46.778Z,6.10
2022-08-02T03:16:48.792Z,7.43
2022-08-02T03:21:47.389Z,9.85
2022-08-02T03:26:41.364Z,9.82
2022-08-02T03:31:35.800Z,9.95
2022-08-02T03:36:33.369Z,9.43
2022-08-02T03:41:27.820Z,8.80
2022-08-02T03:46:24.565Z,6.32
2022-08-02T03:51:20.530Z,6.40
2022-08-02T03:56:14.864Z,5.63
2022-08-02T04:01:08.451Z,6.90
2022-08-02T04:06:04.307Z,6.57
2022-08-02T04:11:21.881Z,6.03
2022-08-02T04:16:23.771Z,6.35
2022-08-02T04:21:21.077Z,6.40
2022-08-02T04:26:16.077Z,6.00
2022-08-02T04:31:10.869Z,5.57
2022-08-02T04:36:06.771Z,7.65
2022-08-02T04:40:59.761Z,4.72
2022-08-02T04:45:55.578Z,4.20
2022-08-02T04:50:49.625Z,4.97
2022-08-02T04:55:44.251Z,5.57
2022-08-02T05:00:38.116Z,4.90
2022-08-02T05:05:32.085Z,6.13
2022-08-02T05:10:25.449Z,5.28
2022-08-02T05:15:19.304Z,4.95
2022-08-02T05:20:15.152Z,4.68
2022-08-02T05:25:10.407Z,4.30
2022-08-02T05:30:06.405Z,4.40
2022-08-02T05:35:02.841Z,5.20
2022-08-02T05:39:56.437Z,5.47
2022-08-02T05:44:50.553Z,3.97
2022-08-02T05:49:45.049Z,3.60
2022-08-02T05:54:50.970Z,2.72
2022-08-02T05:59:52.924Z,2.58
2022-08-02T06:05:09.619Z,2.65
2022-08-02T06:10:08.398Z,2.65
2022-08-02T06:15:05.475Z,2.13
2022-08-02T06:19:58.710Z,2.30
2022-08-02T06:24:51.765Z,2.20
2022-08-02T06:29:47.030Z,2.35
2022-08-02T06:34:42.635Z,2.28
2022-08-02T06:44:48.081Z,2.27
2022-08-02T06:49:53.008Z,1.70
2022-08-02T06:54:47.861Z,2.00
2022-08-02T06:59:42.360Z,3.08
2022-08-02T07:04:37.183Z,1.98
2022-08-02T07:09:32.084Z,1.63
2022-08-02T07:14:26.455Z,1.98
2022-08-02T07:19:20.441Z,1.90
2022-08-02T07:24:14.965Z,3.00
2022-08-02T07:29:09.833Z,2.63
2022-08-02T07:34:03.490Z,2.35
2022-08-02T07:38:58.845Z,3.63
2022-08-02T07:43:53.538Z,3.05
2022-08-02T07:48:49.103Z,3.30
2022-08-02T07:53:51.500Z,2.50
2022-08-02T07:58:56.825Z,2.75
2022-08-02T08:03:50.869Z,2.03
2022-08-02T08:08:44.245Z,1.92
2022-08-02T08:13:39.513Z,2.83
2022-08-02T08:18:34.238Z,2.13
2022-08-02T08:23:28.154Z,1.83
2022-08-02T08:28:21.999Z,2.50
2022-08-02T08:33:16.568Z,1.92
2022-08-02T08:38:10.164Z,2.97
2022-08-02T08:43:04.817Z,3.35
2022-08-02T08:48:02.236Z,1.52
2022-08-02T08:53:01.793Z,1.70
2022-08-02T08:57:56.293Z,1.80
2022-08-02T09:02:50.823Z,1.40
2022-08-02T09:07:52.501Z,1.88
2022-08-02T09:12:46.552Z,1.70
2022-08-02T09:17:51.926Z,2.47
2022-08-02T09:22:45.523Z,1.40
2022-08-02T09:27:38.516Z,1.30
2022-08-02T09:32:46.188Z,2.72
2022-08-02T09:37:41.393Z,2.80
2022-08-02T09:42:36.664Z,1.23
2022-08-02T09:47:32.788Z,1.35
2022-08-02T09:52:36.805Z,1.50
2022-08-02T09:57:34.362Z,1.10
2022-08-02T10:02:28.759Z,0.90
2022-08-02T10:07:23.446Z,0.68
2022-08-02T10:12:17.430Z,0.80
2022-08-02T10:17:11.863Z,0.80
2022-08-02T10:22:12.190Z,1.08
2022-08-02T10:27:08.948Z,0.75
2022-08-02T10:32:12.672Z,0.70
2022-08-02T10:37:10.615Z,0.93
2022-08-02T10:42:08.185Z,0.60
2022-08-02T10:47:15.183Z,0.80
2022-08-02T10:52:11.360Z,0.68
2022-08-02T10:57:16.534Z,0.60
2022-08-02T11:02:10.968Z,0.80
2022-08-02T11:07:17.364Z,0.70
2022-08-02T11:12:16.041Z,0.80
2022-08-02T11:17:14.042Z,0.82
2022-08-02T11:22:28.595Z,0.65
2022-08-02T11:27:23.065Z,1.17
2022-08-02T11:57:26.741Z,0.85
2022-08-02T12:02:40.062Z,1.10
2022-08-02T12:07:46.087Z,0.73
2022-08-02T12:12:59.046Z,0.80
2022-08-02T12:18:13.094Z,0.90
2022-08-02T12:23:07.572Z,0.90
2022-08-02T12:28:27.007Z,0.80
2022-08-02T12:33:20.991Z,0.85
2022-08-02T12:38:14.782Z,1.10
2022-08-02T12:43:16.693Z,0.90
2022-08-02T12:48:10.037Z,0.75
2022-08-02T12:53:15.218Z,0.70
2022-08-02T13:03:03.836Z,0.80
2022-08-02T13:08:00.153Z,1.08
2022-08-02T13:12:53.598Z,0.63
2022-08-02T13:17:46.708Z,0.60
2022-08-02T13:22:40.550Z,0.82
2022-08-02T13:27:46.485Z,0.80
2022-08-02T13:32:39.986Z,0.90
2022-08-02T13:37:33.624Z,1.10
2022-08-02T13:42:33.628Z,2.33
2022-08-02T13:47:36.377Z,0.70
2022-08-02T13:52:41.406Z,0.90
2022-08-02T13:57:34.932Z,1.20
2022-08-02T14:02:47.965Z,0.80
2022-08-02T14:07:42.012Z,0.80
2022-08-02T14:12:35.913Z,1.10
2022-08-02T14:17:29.497Z,1.02
2022-08-02T14:22:23.500Z,1.20
2022-08-02T14:27:20.060Z,1.02
2022-08-02T14:32:14.358Z,1.23
2022-08-02T14:37:09.081Z,1.20
2022-08-02T14:42:03.190Z,1.33
2022-08-02T14:46:58.298Z,1.00
2022-08-02T14:51:52.178Z,1.10
2022-08-02T14:56:46.599Z,1.40
2022-08-02T15:01:43.154Z,1.10
2022-08-02T15:06:37.539Z,1.05
2022-08-02T15:11:32.342Z,1.30
2022-08-02T15:16:55.956Z,1.10
2022-08-02T15:21:54.475Z,1.10
2022-08-02T15:26:50.411Z,1.30
2022-08-02T15:31:43.918Z,0.90
2022-08-02T15:36:38.101Z,1.23
2022-08-02T15:41:31.956Z,3.97
2022-08-02T15:46:25.662Z,1.10
2022-08-02T15:51:27.192Z,1.05
2022-08-02T15:56:24.207Z,1.30
2022-08-02T16:01:18.550Z,1.40
2022-08-02T16:06:13.175Z,1.20
2022-08-02T16:11:07.127Z,1.20
2022-08-02T16:16:01.594Z,1.20
2022-08-02T16:20:55.365Z,1.10
2022-08-02T16:25:54.283Z,1.55
2022-08-02T16:31:04.862Z,1.20
2022-08-02T16:36:01.881Z,1.00
2022-08-02T16:41:01.829Z,1.23
2022-08-02T16:45:56.499Z,1.10
2022-08-02T16:50:51.418Z,1.10
2022-08-02T16:55:51.943Z,2.00
2022-08-02T17:00:50.128Z,1.20
2022-08-02T17:05:56.352Z,1.65
2022-08-02T17:11:03.949Z,1.45
2022-08-02T17:21:14.166Z,1.30
2022-08-02T17:26:13.487Z,1.35
2022-08-02T17:31:09.469Z,1.10
2022-08-02T17:36:05.140Z,1.58
2022-08-02T17:41:05.361Z,1.73
2022-08-02T17:46:10.809Z,1.42
2022-08-02T17:51:05.919Z,1.43
2022-08-02T17:56:00.848Z,1.48
2022-08-02T18:00:59.189Z,1.40
2022-08-02T18:05:55.468Z,1.60
2022-08-02T18:10:50.182Z,1.55
2022-08-02T18:15:45.784Z,1.27
2022-08-02T18:20:40.324Z,2.00
2022-08-02T18:25:37.330Z,1.40
2022-08-02T18:30:41.650Z,1.75
2022-08-02T18:35:36.372Z,1.80
2022-08-02T18:40:30.345Z,1.27
2022-08-02T18:46:04.807Z,1.40
2022-08-02T18:50:43.315Z,1.67
2022-08-02T18:56:03.391Z,2.10
2022-08-02T19:00:57.357Z,2.08
2022-08-02T19:05:55.975Z,1.73
2022-08-02T19:10:53.492Z,2.40
2022-08-02T19:15:50.394Z,2.28
2022-08-02T19:20:48.072Z,3.03
2022-08-02T19:25:50.290Z,2.85
2022-08-02T19:30:49.496Z,3.13
2022-08-02T19:36:01.791Z,3.70
2022-08-02T19:40:56.694Z,5.13
2022-08-02T19:45:52.001Z,5.88
2022-08-02T19:50:51.384Z,5.43
2022-08-02T19:56:00.544Z,5.22
2022-08-02T20:00:56.223Z,3.42
2022-08-02T20:05:50.554Z,3.28
2022-08-02T20:10:45.941Z,2.25
2022-08-02T20:20:50.167Z,2.20
2022-08-02T20:25:45.263Z,2.10
2022-08-02T20:30:40.124Z,2.72
2022-08-02T20:35:34.484Z,2.40
2022-08-02T20:40:29.308Z,1.98
2022-08-02T20:45:27.045Z,2.40
2022-08-02T20:50:39.705Z,2.25
2022-08-02T20:55:34.164Z,1.70
2022-08-02T21:00:28.923Z,1.80
2022-08-02T21:05:26.552Z,1.80
2022-08-02T21:10:35.984Z,2.70
2022-08-02T21:15:30.390Z,2.17
2022-08-02T21:20:31.097Z,3.38
2022-08-02T21:25:42.696Z,2.42
2022-08-02T21:30:42.415Z,2.45
2022-08-02T21:35:38.135Z,3.53
2022-08-02T21:40:32.374Z,2.03
2022-08-02T21:45:27.163Z,2.78
2022-08-02T21:50:22.556Z,2.55
2022-08-02T21:55:16.541Z,2.45
2022-08-02T22:00:28.534Z,2.33
2022-08-02T22:05:22.808Z,3.00
2022-08-02T22:10:17.500Z,2.75
2022-08-02T22:15:11.733Z,3.55
2022-08-02T22:20:06.759Z,2.60
2022-08-02T22:25:00.512Z,3.28
2022-08-02T22:30:02.441Z,2.70
2022-08-02T22:34:57.464Z,2.50
2022-08-02T22:40:08.980Z,2.67
2022-08-02T22:45:10.111Z,2.50
2022-08-02T22:50:04.591Z,2.78
2022-08-02T22:54:59.128Z,2.50
2022-08-02T22:59:53.863Z,2.70
2022-08-02T23:04:48.468Z,2.72
2022-08-02T23:09:42.140Z,3.15
2022-08-02T23:14:37.519Z,2.80
2022-08-02T23:19:50.265Z,2.22
2022-08-02T23:24:45.109Z,3.92
2022-08-02T23:29:38.800Z,2.88
2022-08-02T23:34:33.496Z,2.80
2022-08-02T23:39:28.469Z,2.55
2022-08-02T23:44:22.548Z,2.55
2022-08-02T23:49:17.086Z,2.72
2022-08-02T23:54:11.651Z,2.83
2022-08-02T23:59:11.195Z,3.33
